createdAt,value
2023-05-03T00:02:22.668Z,4.70
2023-05-03T00:04:52.456Z,5.50
2023-05-03T00:07:20.003Z,5.85
2023-05-03T00:09:47.722Z,4.70
2023-05-03T00:12:15.460Z,6.50
2023-05-03T00:14:43.254Z,6.70
2023-05-03T00:17:10.788Z,5.47
2023-05-03T00:19:39.844Z,5.30
2023-05-03T00:22:07.640Z,5.97
2023-05-03T00:24:35.140Z,5.38
2023-05-03T00:27:04.094Z,5.65
2023-05-03T00:29:31.786Z,5.38
2023-05-03T00:31:59.158Z,6.18
2023-05-03T00:34:26.904Z,5.20
2023-05-03T00:36:56.954Z,5.22
2023-05-03T00:39:24.497Z,6.70
2023-05-03T00:41:57.086Z,7.00
2023-05-03T00:44:24.518Z,5.45
2023-05-03T00:46:53.239Z,7.35
2023-05-03T00:49:21.571Z,6.38
2023-05-03T00:51:50.555Z,4.80
2023-05-03T00:54:20.747Z,5.43
2023-05-03T00:56:52.487Z,6.68
2023-05-03T00:59:21.211Z,6.00
2023-05-03T01:01:49.380Z,5.70
2023-05-03T01:04:17.496Z,5.72
2023-05-03T01:06:51.620Z,6.60
2023-05-03T01:09:28.015Z,6.05
2023-05-03T01:12:04.908Z,5.80
2023-05-03T01:14:41.207Z,6.35
2023-05-03T01:17:11.938Z,6.03
2023-05-03T01:19:44.432Z,6.07
2023-05-03T01:22:17.813Z,6.82
2023-05-03T01:24:54.717Z,5.90
2023-05-03T01:27:23.209Z,6.72
2023-05-03T01:29:50.390Z,6.20
2023-05-03T01:32:26.742Z,5.68
2023-05-03T01:35:01.786Z,6.80
2023-05-03T01:37:29.714Z,6.55
2023-05-03T01:40:02.123Z,5.95
2023-05-03T01:42:32.360Z,7.18
2023-05-03T01:45:00.495Z,6.50
2023-05-03T01:47:27.984Z,6.05
2023-05-03T01:49:55.340Z,6.78
2023-05-03T01:52:23.445Z,6.97
2023-05-03T01:54:50.637Z,6.90
2023-05-03T01:57:18.910Z,6.40
2023-05-03T01:59:47.504Z,6.25
2023-05-03T02:02:15.066Z,6.22
2023-05-03T02:04:42.294Z,5.97
2023-05-03T02:07:09.583Z,5.93
2023-05-03T02:09:36.754Z,6.00
2023-05-03T02:12:04.235Z,6.22
2023-05-03T02:14:31.900Z,6.35
2023-05-03T02:17:00.705Z,5.85
2023-05-03T02:19:28.065Z,5.10
2023-05-03T02:21:55.200Z,6.10
2023-05-03T02:24:24.117Z,5.53
2023-05-03T02:26:51.279Z,6.38
2023-05-03T02:29:18.475Z,6.10
2023-05-03T02:31:46.125Z,5.18
2023-05-03T02:34:14.661Z,6.00
2023-05-03T02:36:41.794Z,6.60
2023-05-03T02:39:08.937Z,6.07
2023-05-03T02:41:36.197Z,6.07
2023-05-03T02:44:04.191Z,6.07
2023-05-03T02:46:31.372Z,5.90
2023-05-03T02:48:58.590Z,5.75
2023-05-03T02:51:27.341Z,6.20
2023-05-03T02:53:54.520Z,6.75
2023-05-03T02:56:21.693Z,6.13
2023-05-03T02:58:48.854Z,6.15
2023-05-03T03:01:16.259Z,6.43
2023-05-03T03:03:44.215Z,6.68
2023-05-03T03:06:11.517Z,6.70
2023-05-03T03:08:40.851Z,6.40
2023-05-03T03:11:09.032Z,7.03
2023-05-03T03:13:36.308Z,6.88
2023-05-03T03:16:05.819Z,6.22
2023-05-03T03:18:33.075Z,6.38
2023-05-03T03:21:01.179Z,6.13
2023-05-03T03:23:28.454Z,6.32
2023-05-03T03:25:57.182Z,6.68
2023-05-03T03:28:25.475Z,6.90
2023-05-03T03:30:54.081Z,7.15
2023-05-03T03:33:24.794Z,7.55
2023-05-03T03:35:55.252Z,6.72
2023-05-03T03:38:26.926Z,6.75
2023-05-03T03:41:01.411Z,6.75
2023-05-03T03:43:29.350Z,7.70
2023-05-03T03:45:57.700Z,6.97
2023-05-03T03:48:24.875Z,6.97
2023-05-03T03:50:52.217Z,6.88
2023-05-03T03:53:22.584Z,6.97
2023-05-03T03:55:49.748Z,6.20
2023-05-03T03:58:20.006Z,6.88
2023-05-03T04:00:47.783Z,7.40
2023-05-03T04:03:18.604Z,7.18
2023-05-03T04:05:45.854Z,7.13
2023-05-03T04:08:13.121Z,6.95
2023-05-03T04:10:41.114Z,7.00
2023-05-03T04:13:08.302Z,7.45
2023-05-03T04:15:37.364Z,7.40
2023-05-03T04:18:05.789Z,7.22
2023-05-03T04:20:34.789Z,7.68
2023-05-03T04:23:03.267Z,6.55
2023-05-03T04:25:31.481Z,6.72
2023-05-03T04:28:03.856Z,5.70
2023-05-03T04:30:32.021Z,6.68
2023-05-03T04:33:02.658Z,6.57
2023-05-03T04:35:31.476Z,6.80
2023-05-03T04:38:01.183Z,6.18
2023-05-03T04:40:29.545Z,7.45
2023-05-03T04:43:04.464Z,6.15
2023-05-03T04:45:34.372Z,8.65
2023-05-03T04:48:04.224Z,7.00
2023-05-03T04:50:32.176Z,7.35
2023-05-03T04:52:59.825Z,8.15
2023-05-03T04:55:28.761Z,7.32
2023-05-03T04:57:58.301Z,8.68
2023-05-03T05:00:25.684Z,7.53
2023-05-03T05:02:58.966Z,6.32
2023-05-03T05:05:30.494Z,7.80
2023-05-03T05:07:59.826Z,6.10
2023-05-03T05:10:32.948Z,9.30
2023-05-03T05:13:00.501Z,7.10
2023-05-03T05:15:28.201Z,7.55
2023-05-03T05:17:56.057Z,6.78
2023-05-03T05:20:23.326Z,6.75
2023-05-03T05:22:52.264Z,6.60
2023-05-03T05:25:19.956Z,10.35
2023-05-03T05:27:47.679Z,5.70
2023-05-03T05:30:15.745Z,5.88
2023-05-03T05:32:43.808Z,5.88
2023-05-03T05:35:12.805Z,5.30
2023-05-03T05:37:39.954Z,5.15
2023-05-03T05:40:10.564Z,6.03
2023-05-03T05:42:43.006Z,5.40
2023-05-03T05:45:11.278Z,5.85
2023-05-03T05:47:39.943Z,5.72
2023-05-03T05:50:16.951Z,6.50
2023-05-03T05:52:47.858Z,6.13
2023-05-03T05:55:16.762Z,6.75
2023-05-03T05:57:45.480Z,6.45
2023-05-03T06:00:13.876Z,6.05
2023-05-03T06:02:41.568Z,5.97
2023-05-03T06:05:12.615Z,6.47
2023-05-03T06:07:39.870Z,5.85
2023-05-03T06:10:07.923Z,6.32
2023-05-03T06:12:38.524Z,6.07
2023-05-03T06:15:11.342Z,6.45
2023-05-03T06:17:38.542Z,5.63
2023-05-03T06:20:07.438Z,5.82
2023-05-03T06:22:34.760Z,4.82
2023-05-03T06:25:01.942Z,5.80
2023-05-03T06:27:29.206Z,5.35
2023-05-03T06:29:58.670Z,4.70
2023-05-03T06:32:25.953Z,5.75
2023-05-03T06:34:53.185Z,5.22
2023-05-03T06:37:20.485Z,4.65
2023-05-03T06:39:47.683Z,4.95
2023-05-03T06:42:14.825Z,5.60
2023-05-03T06:44:43.445Z,4.88
2023-05-03T06:47:12.046Z,4.95
2023-05-03T06:49:39.234Z,5.18
2023-05-03T06:52:06.810Z,4.53
2023-05-03T06:54:35.029Z,4.90
2023-05-03T06:57:02.309Z,4.93
2023-05-03T06:59:29.561Z,4.40
2023-05-03T07:01:56.814Z,4.60
2023-05-03T07:04:25.381Z,4.28
2023-05-03T07:06:56.521Z,4.45
2023-05-03T07:09:41.477Z,4.28
2023-05-03T07:12:10.194Z,4.30
2023-05-03T07:14:38.398Z,4.00
2023-05-03T07:17:05.740Z,4.50
2023-05-03T07:19:34.357Z,4.70
2023-05-03T07:22:01.519Z,4.82
2023-05-03T07:24:28.772Z,4.45
2023-05-03T07:26:55.923Z,4.40
2023-05-03T07:29:23.112Z,4.43
2023-05-03T07:31:52.001Z,4.43
2023-05-03T07:34:20.632Z,4.43
2023-05-03T07:36:49.245Z,4.10
2023-05-03T07:39:16.430Z,4.15
2023-05-03T07:41:43.697Z,3.85
2023-05-03T07:44:11.168Z,4.32
2023-05-03T07:46:38.322Z,4.13
2023-05-03T07:49:06.017Z,4.10
2023-05-03T07:51:35.885Z,4.28
2023-05-03T07:54:04.973Z,3.90
2023-05-03T07:56:32.185Z,4.22
2023-05-03T07:59:08.529Z,4.07
2023-05-03T08:01:36.953Z,3.83
2023-05-03T08:04:04.420Z,3.75
2023-05-03T08:06:32.853Z,3.92
2023-05-03T08:09:00.113Z,5.43
2023-05-03T08:11:28.725Z,3.70
2023-05-03T08:13:56.437Z,3.85
2023-05-03T08:16:23.730Z,3.88
2023-05-03T08:18:50.919Z,4.38
2023-05-03T08:21:18.086Z,3.67
2023-05-03T08:23:45.313Z,3.90
2023-05-03T08:26:12.497Z,4.22
2023-05-03T08:28:41.021Z,4.68
2023-05-03T08:31:08.912Z,4.28
2023-05-03T08:33:36.798Z,4.28
2023-05-03T08:36:04.349Z,3.85
2023-05-03T08:38:31.582Z,4.18
2023-05-03T08:41:04.071Z,4.00
2023-05-03T08:43:35.551Z,4.80
2023-05-03T08:46:04.614Z,4.63
2023-05-03T08:48:32.082Z,3.70
2023-05-03T08:51:04.336Z,4.35
2023-05-03T08:53:31.498Z,3.95
2023-05-03T08:55:58.807Z,4.45
2023-05-03T08:58:26.002Z,4.15
2023-05-03T09:00:53.115Z,4.78
2023-05-03T09:03:21.812Z,3.83
2023-05-03T09:05:49.021Z,4.40
2023-05-03T09:08:16.230Z,4.30
2023-05-03T09:10:43.447Z,4.13
2023-05-03T09:13:10.992Z,4.00
2023-05-03T09:15:38.248Z,3.85
2023-05-03T09:18:11.207Z,4.10
2023-05-03T09:20:41.301Z,4.22
2023-05-03T09:23:09.401Z,4.22
2023-05-03T09:25:47.144Z,4.20
2023-05-03T09:28:15.145Z,4.40
2023-05-03T09:30:42.497Z,3.90
2023-05-03T09:33:10.321Z,3.70
2023-05-03T09:35:37.780Z,3.47
2023-05-03T09:38:06.408Z,4.07
2023-05-03T09:40:33.621Z,4.13
2023-05-03T09:43:08.064Z,3.90
2023-05-03T09:45:35.750Z,3.70
2023-05-03T09:48:03.761Z,4.82
2023-05-03T09:50:32.119Z,8.30
2023-05-03T09:53:01.928Z,5.78
2023-05-03T09:55:32.358Z,3.47
2023-05-03T09:58:00.495Z,3.85
2023-05-03T10:00:29.165Z,4.43
2023-05-03T10:02:57.046Z,4.00
2023-05-03T10:05:26.553Z,3.55
2023-05-03T10:07:57.249Z,4.00
2023-05-03T10:10:24.772Z,3.90
2023-05-03T10:12:53.931Z,3.35
2023-05-03T10:15:23.246Z,2.97
2023-05-03T10:17:53.893Z,3.30
2023-05-03T10:20:27.253Z,3.22
2023-05-03T10:23:07.668Z,3.20
2023-05-03T10:25:36.550Z,3.60
2023-05-03T10:28:06.667Z,3.15
2023-05-03T10:30:36.847Z,3.38
2023-05-03T10:33:30.052Z,3.47
2023-05-03T10:35:57.613Z,3.42
2023-05-03T10:38:26.326Z,3.28
2023-05-03T10:40:54.250Z,3.25
2023-05-03T10:43:43.026Z,3.60
2023-05-03T10:46:30.933Z,3.00
2023-05-03T10:49:17.696Z,2.80
2023-05-03T10:51:44.928Z,3.40
2023-05-03T10:54:12.117Z,3.28
2023-05-03T10:56:47.945Z,3.33
2023-05-03T10:59:16.740Z,3.30
2023-05-03T11:01:45.446Z,3.33
2023-05-03T11:04:17.374Z,2.60
2023-05-03T11:06:44.574Z,3.70
2023-05-03T11:09:11.907Z,3.00
2023-05-03T11:11:40.476Z,2.75
2023-05-03T11:14:08.563Z,2.58
2023-05-03T11:16:37.678Z,2.78
2023-05-03T11:19:05.988Z,2.95
2023-05-03T11:21:33.229Z,2.78
2023-05-03T11:24:01.614Z,2.88
2023-05-03T11:26:28.787Z,3.20
2023-05-03T11:28:55.992Z,2.90
2023-05-03T11:31:23.374Z,2.80
2023-05-03T11:33:51.992Z,2.60
2023-05-03T11:36:19.157Z,3.17
2023-05-03T11:38:46.322Z,2.95
2023-05-03T11:41:15.159Z,2.97
2023-05-03T11:43:42.968Z,3.10
2023-05-03T11:46:11.308Z,3.00
2023-05-03T11:48:38.907Z,3.35
2023-05-03T11:51:10.973Z,3.85
2023-05-03T11:53:39.339Z,3.70
2023-05-03T11:56:08.004Z,3.72
2023-05-03T11:58:35.493Z,4.50
2023-05-03T12:01:02.695Z,4.03
2023-05-03T12:03:32.072Z,3.72
2023-05-03T12:06:01.865Z,4.13
2023-05-03T12:08:36.017Z,4.15
2023-05-03T12:11:07.044Z,3.60
2023-05-03T12:13:38.737Z,3.85
2023-05-03T12:16:13.809Z,3.55
2023-05-03T12:18:50.620Z,3.58
2023-05-03T12:23:50.926Z,3.22
2023-05-03T12:26:19.256Z,2.90
2023-05-03T12:28:47.841Z,3.95
2023-05-03T12:31:17.882Z,3.33
2023-05-03T12:34:01.351Z,3.28
2023-05-03T12:36:36.848Z,2.97
2023-05-03T12:39:09.233Z,3.50
2023-05-03T12:44:10.215Z,3.05
2023-05-03T12:46:38.686Z,3.40
2023-05-03T12:49:07.425Z,3.10
2023-05-03T12:51:35.916Z,3.20
2023-05-03T12:54:03.978Z,3.20
2023-05-03T12:56:33.564Z,2.80
2023-05-03T12:59:31.856Z,3.15
2023-05-03T13:02:41.546Z,2.72
2023-05-03T13:04:57.075Z,2.58
2023-05-03T13:07:27.859Z,2.90
2023-05-03T13:12:29.269Z,2.83
2023-05-03T13:14:56.423Z,3.00
2023-05-03T13:17:23.832Z,2.80
2023-05-03T13:19:51.341Z,2.33
2023-05-03T13:22:18.787Z,2.30
2023-05-03T13:24:47.038Z,2.58
2023-05-03T13:27:14.996Z,2.78
2023-05-03T13:29:44.764Z,2.88
2023-05-03T13:32:12.880Z,2.58
2023-05-03T13:34:40.065Z,2.40
2023-05-03T13:37:07.396Z,2.78
2023-05-03T13:39:34.635Z,2.20
2023-05-03T13:42:01.825Z,2.45
2023-05-03T13:44:29.007Z,2.25
2023-05-03T13:46:57.564Z,2.30
2023-05-03T13:49:24.762Z,2.42
2023-05-03T13:51:52.169Z,2.50
2023-05-03T13:54:19.408Z,2.13
2023-05-03T13:56:46.859Z,2.25
2023-05-03T13:59:14.061Z,2.40
2023-05-03T14:01:41.480Z,2.47
2023-05-03T14:04:10.647Z,2.63
2023-05-03T14:06:40.289Z,2.70
2023-05-03T14:09:08.751Z,2.58
2023-05-03T14:11:35.996Z,2.10
2023-05-03T14:14:03.485Z,2.22
2023-05-03T14:16:40.732Z,1.95
2023-05-03T14:19:09.840Z,2.10
2023-05-03T14:21:37.034Z,2.28
2023-05-03T14:24:05.035Z,2.40
2023-05-03T14:26:32.195Z,2.05
2023-05-03T14:28:59.522Z,2.72
2023-05-03T14:31:26.736Z,2.22
2023-05-03T14:33:53.966Z,2.08
2023-05-03T14:36:22.557Z,2.60
2023-05-03T14:38:49.759Z,2.90
2023-05-03T14:41:16.913Z,2.13
2023-05-03T14:43:44.095Z,2.20
2023-05-03T14:46:11.359Z,2.33
2023-05-03T14:48:38.603Z,2.38
2023-05-03T14:51:05.939Z,2.30
2023-05-03T14:53:34.484Z,2.30
2023-05-03T14:56:01.696Z,2.17
2023-05-03T14:58:28.829Z,2.10
2023-05-03T15:00:56.019Z,2.20
2023-05-03T15:03:23.243Z,2.00
2023-05-03T15:05:50.669Z,2.53
2023-05-03T15:08:19.783Z,2.10
2023-05-03T15:10:48.370Z,2.33
2023-05-03T15:13:16.160Z,1.95
2023-05-03T15:15:43.949Z,1.95
2023-05-03T15:18:11.597Z,2.15
2023-05-03T15:20:39.230Z,2.17
2023-05-03T15:23:06.483Z,2.40
2023-05-03T15:25:33.739Z,1.90
2023-05-03T15:28:04.063Z,2.83
2023-05-03T15:30:31.829Z,2.25
2023-05-03T15:32:59.075Z,2.65
2023-05-03T15:35:26.493Z,2.30
2023-05-03T15:37:53.645Z,2.25
2023-05-03T15:40:20.793Z,2.97
2023-05-03T15:42:47.937Z,2.22
2023-05-03T15:45:16.827Z,2.45
2023-05-03T15:47:44.073Z,2.72
2023-05-03T15:50:11.409Z,2.60
2023-05-03T15:52:38.568Z,2.13
2023-05-03T15:55:06.784Z,2.42
2023-05-03T15:57:33.976Z,2.22
2023-05-03T16:00:01.204Z,4.57
2023-05-03T16:02:29.706Z,2.80
2023-05-03T16:04:56.921Z,2.88
2023-05-03T16:07:24.091Z,3.75
2023-05-03T16:09:51.252Z,8.95
2023-05-03T16:12:18.397Z,2.47
2023-05-03T16:14:45.704Z,2.10
2023-05-03T16:17:12.895Z,2.50
2023-05-03T16:19:41.373Z,2.58
2023-05-03T16:22:08.589Z,3.42
2023-05-03T16:24:35.791Z,2.28
2023-05-03T16:27:02.979Z,2.50
2023-05-03T16:29:30.127Z,2.22
2023-05-03T16:31:57.288Z,2.40
2023-05-03T16:34:24.478Z,2.50
2023-05-03T16:36:52.985Z,2.13
2023-05-03T16:39:20.165Z,2.70
2023-05-03T16:41:47.327Z,2.55
2023-05-03T16:44:14.505Z,2.03
2023-05-03T16:46:41.896Z,1.80
2023-05-03T16:49:09.078Z,2.40
2023-05-03T16:51:36.306Z,2.92
2023-05-03T16:54:05.057Z,1.90
2023-05-03T16:56:32.246Z,2.00
2023-05-03T16:58:59.403Z,2.28
2023-05-03T17:01:26.615Z,2.00
2023-05-03T17:03:53.806Z,2.50
2023-05-03T17:06:20.938Z,2.70
2023-05-03T17:08:48.175Z,4.68
2023-05-03T17:11:16.645Z,2.47
2023-05-03T17:13:44.070Z,2.00
2023-05-03T17:16:13.125Z,2.42
2023-05-03T17:18:40.640Z,2.08
2023-05-03T17:21:08.351Z,1.70
2023-05-03T17:23:37.572Z,1.80
2023-05-03T17:26:06.742Z,2.25
2023-05-03T17:28:36.168Z,2.38
2023-05-03T17:31:03.827Z,1.70
2023-05-03T17:33:31.087Z,1.85
2023-05-03T17:35:58.538Z,2.17
2023-05-03T17:38:26.005Z,2.35
2023-05-03T17:40:53.149Z,2.08
2023-05-03T17:43:20.361Z,1.60
2023-05-03T17:45:49.007Z,2.10
2023-05-03T17:48:16.233Z,1.67
2023-05-03T17:50:43.414Z,2.00
2023-05-03T17:53:10.565Z,1.95
2023-05-03T17:55:37.835Z,1.85
2023-05-03T17:58:05.399Z,1.67
2023-05-03T18:00:32.642Z,1.60
2023-05-03T18:03:01.437Z,2.33
2023-05-03T18:05:28.772Z,1.90
2023-05-03T18:07:55.917Z,1.80
2023-05-03T18:10:23.076Z,1.67
2023-05-03T18:12:50.287Z,1.70
2023-05-03T18:15:17.727Z,1.95
2023-05-03T18:17:45.164Z,1.90
2023-05-03T18:20:14.589Z,2.40
2023-05-03T18:22:41.952Z,1.83
2023-05-03T18:25:09.537Z,2.00
2023-05-03T18:27:36.839Z,1.67
2023-05-03T18:30:04.844Z,2.05
2023-05-03T18:32:32.508Z,2.05
2023-05-03T18:35:00.478Z,2.33
2023-05-03T18:37:29.458Z,2.50
2023-05-03T18:39:56.695Z,2.25
2023-05-03T18:42:24.125Z,3.25
2023-05-03T18:44:51.435Z,3.00
2023-05-03T18:47:19.136Z,2.30
2023-05-03T18:49:47.311Z,2.10
2023-05-03T18:52:15.186Z,1.98
2023-05-03T18:54:44.180Z,2.00
2023-05-03T18:57:11.342Z,2.08
2023-05-03T18:59:48.763Z,1.92
2023-05-03T19:02:24.579Z,1.98
2023-05-03T19:04:51.850Z,2.20
2023-05-03T19:07:19.658Z,2.08
2023-05-03T19:09:53.092Z,2.65
2023-05-03T19:12:21.593Z,2.33
2023-05-03T19:14:49.561Z,1.80
2023-05-03T19:17:17.276Z,2.00
2023-05-03T19:19:45.319Z,2.35
2023-05-03T19:22:13.293Z,2.00
2023-05-03T19:24:41.461Z,2.05
2023-05-03T19:27:10.823Z,2.03
2023-05-03T19:29:38.442Z,1.80
2023-05-03T19:32:06.463Z,1.55
2023-05-03T19:34:34.413Z,2.10
2023-05-03T19:37:02.755Z,1.90
2023-05-03T19:39:29.957Z,1.98
2023-05-03T19:41:57.406Z,2.40
2023-05-03T19:44:28.004Z,1.77
2023-05-03T19:46:55.482Z,2.08
2023-05-03T19:49:23.393Z,1.80
2023-05-03T19:51:51.003Z,1.95
2023-05-03T19:54:18.196Z,1.75
2023-05-03T19:56:45.313Z,2.00
2023-05-03T19:59:12.483Z,2.83
2023-05-03T20:01:41.058Z,2.10
2023-05-03T20:04:08.494Z,1.70
2023-05-03T20:06:35.776Z,1.90
2023-05-03T20:09:02.993Z,1.90
2023-05-03T20:11:30.215Z,2.03
2023-05-03T20:13:57.369Z,2.30
2023-05-03T20:16:24.652Z,1.77
2023-05-03T20:18:53.217Z,2.42
2023-05-03T20:21:20.413Z,2.20
2023-05-03T20:23:47.550Z,2.10
2023-05-03T20:26:14.770Z,2.00
2023-05-03T20:28:41.886Z,2.13
2023-05-03T20:31:09.151Z,2.03
2023-05-03T20:33:36.387Z,2.30
2023-05-03T20:36:05.356Z,2.15
2023-05-03T20:38:32.579Z,2.00
2023-05-03T20:40:59.790Z,3.05
2023-05-03T20:43:26.960Z,3.05
2023-05-03T20:45:54.176Z,2.80
2023-05-03T20:48:21.471Z,2.50
2023-05-03T20:50:48.638Z,2.05
2023-05-03T20:53:17.351Z,1.98
2023-05-03T20:55:44.490Z,2.38
2023-05-03T20:58:11.683Z,2.30
2023-05-03T21:00:38.839Z,2.20
2023-05-03T21:03:06.088Z,2.17
2023-05-03T21:05:33.229Z,2.65
2023-05-03T21:08:00.436Z,2.33
2023-05-03T21:10:28.989Z,2.65
2023-05-03T21:12:56.230Z,2.25
2023-05-03T21:15:23.468Z,2.90
2023-05-03T21:17:50.607Z,3.10
2023-05-03T21:20:17.928Z,3.13
2023-05-03T21:22:45.450Z,2.53
2023-05-03T21:25:12.661Z,2.90
2023-05-03T21:27:41.161Z,2.80
2023-05-03T21:30:09.413Z,2.63
2023-05-03T21:32:36.639Z,2.70
2023-05-03T21:35:04.272Z,2.80
2023-05-03T21:37:31.408Z,2.60
2023-05-03T21:40:02.492Z,2.75
2023-05-03T21:42:30.233Z,2.53
2023-05-03T21:44:58.736Z,2.50
2023-05-03T21:47:26.541Z,2.50
2023-05-03T21:49:53.804Z,2.47
2023-05-03T21:52:20.944Z,2.42
2023-05-03T21:54:48.158Z,2.30
2023-05-03T21:57:15.317Z,2.03
2023-05-03T21:59:42.441Z,2.00
2023-05-03T22:02:10.991Z,2.40
2023-05-03T22:04:38.122Z,2.70
2023-05-03T22:07:05.233Z,2.75
2023-05-03T22:09:32.361Z,2.45
2023-05-03T22:12:00.606Z,2.85
2023-05-03T22:14:31.090Z,2.60
2023-05-03T22:16:58.260Z,2.42
2023-05-03T22:19:29.177Z,2.50
2023-05-03T22:21:56.364Z,3.00
2023-05-03T22:24:23.600Z,2.75
2023-05-03T22:26:50.806Z,2.53
2023-05-03T22:29:18.226Z,2.28
2023-05-03T22:31:45.423Z,2.50
2023-05-03T22:34:12.763Z,2.95
2023-05-03T22:36:41.268Z,2.33
2023-05-03T22:39:08.430Z,2.28
2023-05-03T22:41:35.604Z,2.70
2023-05-03T22:44:02.887Z,2.75
2023-05-03T22:46:30.124Z,2.72
2023-05-03T22:48:57.392Z,2.83
2023-05-03T22:51:24.676Z,2.47
2023-05-03T22:53:53.257Z,2.60
2023-05-03T22:56:20.472Z,4.40
2023-05-03T22:58:47.612Z,2.97
2023-05-03T23:01:14.846Z,2.97
2023-05-03T23:03:42.294Z,2.85
2023-05-03T23:06:09.468Z,2.88
2023-05-03T23:08:36.665Z,3.10
2023-05-03T23:11:05.309Z,2.80
2023-05-03T23:13:32.473Z,3.10
2023-05-03T23:15:59.673Z,3.03
2023-05-03T23:18:26.858Z,3.22
2023-05-03T23:20:53.995Z,3.20
2023-05-03T23:23:21.197Z,3.00
2023-05-03T23:25:48.428Z,3.63
2023-05-03T23:28:16.990Z,3.47
2023-05-03T23:30:45.515Z,3.05
2023-05-03T23:33:13.276Z,3.25
2023-05-03T23:35:41.120Z,3.33
2023-05-03T23:38:08.325Z,3.22
2023-05-03T23:40:35.610Z,3.17
2023-05-03T23:43:02.774Z,3.20
2023-05-03T23:45:31.286Z,3.10
2023-05-03T23:47:58.506Z,3.45
2023-05-03T23:50:25.760Z,3.50
2023-05-03T23:52:52.907Z,2.80
2023-05-03T23:55:20.292Z,3.03
2023-05-03T23:57:47.481Z,3.30
